sensor_id;sensor_type;location;lat;lon;timestamp;temperature;humidity
25352;DHT22;13304;48.464;8.712;2022-08-21T00:02:21;19.10;71.70
25352;DHT22;13304;48.464;8.712;2022-08-21T00:04:47;19.10;72.00
25352;DHT22;13304;48.464;8.712;2022-08-21T00:07:14;19.10;71.80
25352;DHT22;13304;48.464;8.712;2022-08-21T00:09:40;19.10;71.80
25352;DHT22;13304;48.464;8.712;2022-08-21T00:12:06;19.10;72.00
25352;DHT22;13304;48.464;8.712;2022-08-21T00:14:33;19.10;72.30
25352;DHT22;13304;48.464;8.712;2022-08-21T00:16:59;19.00;72.30
25352;DHT22;13304;48.464;8.712;2022-08-21T00:19:25;19.10;72.30
25352;DHT22;13304;48.464;8.712;2022-08-21T00:21:52;19.00;72.40
25352;DHT22;13304;48.464;8.712;2022-08-21T00:24:20;19.00;72.50
25352;DHT22;13304;48.464;8.712;2022-08-21T00:26:46;19.00;72.50
25352;DHT22;13304;48.464;8.712;2022-08-21T00:29:14;18.90;72.50
25352;DHT22;13304;48.464;8.712;2022-08-21T00:31:41;18.90;72.60
25352;DHT22;13304;48.464;8.712;2022-08-21T00:34:07;18.90;72.70
25352;DHT22;13304;48.464;8.712;2022-08-21T00:36:34;18.80;72.70
25352;DHT22;13304;48.464;8.712;2022-08-21T00:39:00;18.80;72.80
25352;DHT22;13304;48.464;8.712;2022-08-21T00:41:27;18.70;72.90
25352;DHT22;13304;48.464;8.712;2022-08-21T00:43:54;18.70;72.80
25352;DHT22;13304;48.464;8.712;2022-08-21T00:46:19;18.70;72.70
25352;DHT22;13304;48.464;8.712;2022-08-21T00:48:48;18.60;72.70
25352;DHT22;13304;48.464;8.712;2022-08-21T00:51:19;18.60;72.90
25352;DHT22;13304;48.464;8.712;2022-08-21T00:53:53;18.60;73.00
25352;DHT22;13304;48.464;8.712;2022-08-21T00:56:21;18.60;73.10
25352;DHT22;13304;48.464;8.712;2022-08-21T00:58:52;18.60;72.90
25352;DHT22;13304;48.464;8.712;2022-08-21T01:01:19;18.50;73.10
25352;DHT22;13304;48.464;8.712;2022-08-21T01:03:46;18.50;73.10
25352;DHT22;13304;48.464;8.712;2022-08-21T01:06:12;18.50;73.30
25352;DHT22;13304;48.464;8.712;2022-08-21T01:08:38;18.50;73.30
25352;DHT22;13304;48.464;8.712;2022-08-21T01:11:05;18.50;73.40
25352;DHT22;13304;48.464;8.712;2022-08-21T01:13:36;18.50;73.60
25352;DHT22;13304;48.464;8.712;2022-08-21T01:16:04;18.50;74.40
25352;DHT22;13304;48.464;8.712;2022-08-21T01:18:30;18.50;73.60
25352;DHT22;13304;48.464;8.712;2022-08-21T01:21:07;18.50;73.50
25352;DHT22;13304;48.464;8.712;2022-08-21T01:23:36;18.40;73.30
25352;DHT22;13304;48.464;8.712;2022-08-21T01:26:03;18.40;72.90
25352;DHT22;13304;48.464;8.712;2022-08-21T01:28:33;18.30;73.00
25352;DHT22;13304;48.464;8.712;2022-08-21T01:31:01;18.40;72.60
25352;DHT22;13304;48.464;8.712;2022-08-21T01:33:28;18.30;72.70
25352;DHT22;13304;48.464;8.712;2022-08-21T01:35:54;18.20;72.80
25352;DHT22;13304;48.464;8.712;2022-08-21T01:38:20;18.20;73.50
25352;DHT22;13304;48.464;8.712;2022-08-21T01:40:46;18.20;73.80
25352;DHT22;13304;48.464;8.712;2022-08-21T01:43:11;18.10;73.70
25352;DHT22;13304;48.464;8.712;2022-08-21T01:45:37;18.10;74.00
25352;DHT22;13304;48.464;8.712;2022-08-21T01:48:03;18.00;74.30
25352;DHT22;13304;48.464;8.712;2022-08-21T01:50:29;18.00;74.60
25352;DHT22;13304;48.464;8.712;2022-08-21T01:52:55;18.00;74.40
25352;DHT22;13304;48.464;8.712;2022-08-21T01:55:23;17.90;74.30
25352;DHT22;13304;48.464;8.712;2022-08-21T01:57:50;17.90;74.20
25352;DHT22;13304;48.464;8.712;2022-08-21T02:00:18;17.90;74.40
25352;DHT22;13304;48.464;8.712;2022-08-21T02:02:44;17.90;74.60
25352;DHT22;13304;48.464;8.712;2022-08-21T02:05:12;17.90;74.60
25352;DHT22;13304;48.464;8.712;2022-08-21T02:07:49;17.80;74.50
25352;DHT22;13304;48.464;8.712;2022-08-21T02:10:20;17.80;74.70
25352;DHT22;13304;48.464;8.712;2022-08-21T02:12:46;17.80;74.60
25352;DHT22;13304;48.464;8.712;2022-08-21T02:15:13;17.80;74.30
25352;DHT22;13304;48.464;8.712;2022-08-21T02:17:51;17.80;74.30
25352;DHT22;13304;48.464;8.712;2022-08-21T02:20:24;17.80;74.20
25352;DHT22;13304;48.464;8.712;2022-08-21T02:22:50;17.80;74.10
25352;DHT22;13304;48.464;8.712;2022-08-21T02:25:18;17.80;74.10
25352;DHT22;13304;48.464;8.712;2022-08-21T02:27:46;17.70;73.80
25352;DHT22;13304;48.464;8.712;2022-08-21T02:30:15;17.70;73.70
25352;DHT22;13304;48.464;8.712;2022-08-21T02:32:43;17.70;73.80
25352;DHT22;13304;48.464;8.712;2022-08-21T02:35:10;17.70;73.70
25352;DHT22;13304;48.464;8.712;2022-08-21T02:37:56;17.60;73.80
25352;DHT22;13304;48.464;8.712;2022-08-21T02:40:25;17.60;74.40
25352;DHT22;13304;48.464;8.712;2022-08-21T02:42:52;17.60;74.20
25352;DHT22;13304;48.464;8.712;2022-08-21T02:45:18;17.60;74.30
25352;DHT22;13304;48.464;8.712;2022-08-21T02:47:52;17.60;74.40
25352;DHT22;13304;48.464;8.712;2022-08-21T02:50:24;17.50;74.90
25352;DHT22;13304;48.464;8.712;2022-08-21T02:52:49;17.50;74.90
25352;DHT22;13304;48.464;8.712;2022-08-21T02:55:19;17.50;75.10
25352;DHT22;13304;48.464;8.712;2022-08-21T02:57:46;17.50;75.40
25352;DHT22;13304;48.464;8.712;2022-08-21T03:00:13;17.50;75.60
25352;DHT22;13304;48.464;8.712;2022-08-21T03:02:40;17.50;75.50
25352;DHT22;13304;48.464;8.712;2022-08-21T03:05:07;17.40;75.40
25352;DHT22;13304;48.464;8.712;2022-08-21T03:07:33;17.40;75.60
25352;DHT22;13304;48.464;8.712;2022-08-21T03:10:00;17.40;75.50
25352;DHT22;13304;48.464;8.712;2022-08-21T03:12:26;17.40;75.60
25352;DHT22;13304;48.464;8.712;2022-08-21T03:14:51;17.40;75.60
25352;DHT22;13304;48.464;8.712;2022-08-21T03:17:17;17.40;75.60
25352;DHT22;13304;48.464;8.712;2022-08-21T03:19:43;17.30;75.50
25352;DHT22;13304;48.464;8.712;2022-08-21T03:22:09;17.30;75.50
25352;DHT22;13304;48.464;8.712;2022-08-21T03:24:34;17.30;75.50
25352;DHT22;13304;48.464;8.712;2022-08-21T03:27:00;17.30;75.70
25352;DHT22;13304;48.464;8.712;2022-08-21T03:29:26;17.30;75.70
25352;DHT22;13304;48.464;8.712;2022-08-21T03:31:52;17.30;75.80
25352;DHT22;13304;48.464;8.712;2022-08-21T03:34:20;17.20;76.00
25352;DHT22;13304;48.464;8.712;2022-08-21T03:36:47;17.20;76.10
25352;DHT22;13304;48.464;8.712;2022-08-21T03:39:16;17.20;76.00
25352;DHT22;13304;48.464;8.712;2022-08-21T03:41:45;17.20;76.00
25352;DHT22;13304;48.464;8.712;2022-08-21T03:44:12;17.20;75.90
25352;DHT22;13304;48.464;8.712;2022-08-21T03:46:41;17.20;75.80
25352;DHT22;13304;48.464;8.712;2022-08-21T03:49:07;17.20;75.90
25352;DHT22;13304;48.464;8.712;2022-08-21T03:51:33;17.20;75.90
25352;DHT22;13304;48.464;8.712;2022-08-21T03:53:59;17.20;76.10
25352;DHT22;13304;48.464;8.712;2022-08-21T03:56:27;17.20;76.30
25352;DHT22;13304;48.464;8.712;2022-08-21T03:58:53;17.20;76.30
25352;DHT22;13304;48.464;8.712;2022-08-21T04:01:19;17.20;76.30
25352;DHT22;13304;48.464;8.712;2022-08-21T04:03:45;17.20;76.50
25352;DHT22;13304;48.464;8.712;2022-08-21T04:06:11;17.20;76.30
25352;DHT22;13304;48.464;8.712;2022-08-21T04:08:36;17.20;76.30
25352;DHT22;13304;48.464;8.712;2022-08-21T04:11:02;17.20;76.40
25352;DHT22;13304;48.464;8.712;2022-08-21T04:13:28;17.20;76.30
25352;DHT22;13304;48.464;8.712;2022-08-21T04:15:54;17.20;76.20
25352;DHT22;13304;48.464;8.712;2022-08-21T04:18:20;17.20;76.20
25352;DHT22;13304;48.464;8.712;2022-08-21T04:20:48;17.20;76.20
25352;DHT22;13304;48.464;8.712;2022-08-21T04:23:15;17.10;76.40
25352;DHT22;13304;48.464;8.712;2022-08-21T04:25:41;17.20;76.40
25352;DHT22;13304;48.464;8.712;2022-08-21T04:28:07;17.10;76.40
25352;DHT22;13304;48.464;8.712;2022-08-21T04:30:33;17.20;76.50
25352;DHT22;13304;48.464;8.712;2022-08-21T04:32:58;17.20;76.50
25352;DHT22;13304;48.464;8.712;2022-08-21T04:35:26;17.10;76.30
25352;DHT22;13304;48.464;8.712;2022-08-21T04:37:53;17.10;76.20
25352;DHT22;13304;48.464;8.712;2022-08-21T04:40:20;17.10;76.30
25352;DHT22;13304;48.464;8.712;2022-08-21T04:42:52;17.20;76.40
25352;DHT22;13304;48.464;8.712;2022-08-21T04:45:25;17.10;76.20
25352;DHT22;13304;48.464;8.712;2022-08-21T04:47:53;17.10;76.00
25352;DHT22;13304;48.464;8.712;2022-08-21T04:50:24;17.10;75.80
25352;DHT22;13304;48.464;8.712;2022-08-21T04:52:52;17.10;75.70
25352;DHT22;13304;48.464;8.712;2022-08-21T04:55:18;17.10;75.60
25352;DHT22;13304;48.464;8.712;2022-08-21T04:57:45;17.10;75.50
25352;DHT22;13304;48.464;8.712;2022-08-21T05:00:12;17.10;75.50
25352;DHT22;13304;48.464;8.712;2022-08-21T05:02:40;17.00;75.30
25352;DHT22;13304;48.464;8.712;2022-08-21T05:05:06;17.00;75.40
25352;DHT22;13304;48.464;8.712;2022-08-21T05:07:32;17.10;75.60
25352;DHT22;13304;48.464;8.712;2022-08-21T05:10:00;17.00;75.50
25352;DHT22;13304;48.464;8.712;2022-08-21T05:12:26;17.10;75.50
25352;DHT22;13304;48.464;8.712;2022-08-21T05:14:52;17.00;75.30
25352;DHT22;13304;48.464;8.712;2022-08-21T05:17:18;17.10;75.30
25352;DHT22;13304;48.464;8.712;2022-08-21T05:19:44;17.00;75.30
25352;DHT22;13304;48.464;8.712;2022-08-21T05:22:10;17.00;75.40
25352;DHT22;13304;48.464;8.712;2022-08-21T05:24:36;17.00;75.60
25352;DHT22;13304;48.464;8.712;2022-08-21T05:27:03;17.00;75.70
25352;DHT22;13304;48.464;8.712;2022-08-21T05:29:29;17.00;76.00
25352;DHT22;13304;48.464;8.712;2022-08-21T05:31:55;17.00;76.10
25352;DHT22;13304;48.464;8.712;2022-08-21T05:34:22;17.00;76.40
25352;DHT22;13304;48.464;8.712;2022-08-21T05:36:48;17.00;76.70
25352;DHT22;13304;48.464;8.712;2022-08-21T05:39:14;17.00;76.80
25352;DHT22;13304;48.464;8.712;2022-08-21T05:41:40;17.00;77.00
25352;DHT22;13304;48.464;8.712;2022-08-21T05:44:06;17.00;78.10
25352;DHT22;13304;48.464;8.712;2022-08-21T05:46:32;17.00;77.60
25352;DHT22;13304;48.464;8.712;2022-08-21T05:48:58;17.10;77.90
25352;DHT22;13304;48.464;8.712;2022-08-21T05:51:24;17.10;78.10
25352;DHT22;13304;48.464;8.712;2022-08-21T05:53:50;17.10;78.10
25352;DHT22;13304;48.464;8.712;2022-08-21T05:56:16;17.20;78.20
25352;DHT22;13304;48.464;8.712;2022-08-21T05:58:42;17.30;78.30
25352;DHT22;13304;48.464;8.712;2022-08-21T06:01:08;17.30;78.30
25352;DHT22;13304;48.464;8.712;2022-08-21T06:03:37;17.40;78.30
25352;DHT22;13304;48.464;8.712;2022-08-21T06:06:03;17.40;78.20
25352;DHT22;13304;48.464;8.712;2022-08-21T06:08:29;17.40;78.20
25352;DHT22;13304;48.464;8.712;2022-08-21T06:10:56;17.50;79.10
25352;DHT22;13304;48.464;8.712;2022-08-21T06:13:23;17.50;78.20
25352;DHT22;13304;48.464;8.712;2022-08-21T06:16:00;17.60;78.30
25352;DHT22;13304;48.464;8.712;2022-08-21T06:18:26;17.60;78.30
25352;DHT22;13304;48.464;8.712;2022-08-21T06:20:52;17.70;78.10
25352;DHT22;13304;48.464;8.712;2022-08-21T06:23:18;17.80;78.20
25352;DHT22;13304;48.464;8.712;2022-08-21T06:25:44;17.80;78.10
25352;DHT22;13304;48.464;8.712;2022-08-21T06:28:13;17.90;78.20
25352;DHT22;13304;48.464;8.712;2022-08-21T06:30:39;17.90;78.10
25352;DHT22;13304;48.464;8.712;2022-08-21T06:33:05;18.00;77.90
25352;DHT22;13304;48.464;8.712;2022-08-21T06:35:33;18.10;77.80
25352;DHT22;13304;48.464;8.712;2022-08-21T06:37:59;18.10;77.70
25352;DHT22;13304;48.464;8.712;2022-08-21T06:40:29;18.20;77.90
25352;DHT22;13304;48.464;8.712;2022-08-21T06:42:56;18.20;77.90
25352;DHT22;13304;48.464;8.712;2022-08-21T06:45:22;18.30;77.90
25352;DHT22;13304;48.464;8.712;2022-08-21T06:47:49;18.30;78.60
25352;DHT22;13304;48.464;8.712;2022-08-21T06:50:15;18.40;77.80
25352;DHT22;13304;48.464;8.712;2022-08-21T06:52:40;18.50;78.00
25352;DHT22;13304;48.464;8.712;2022-08-21T06:55:08;18.50;78.00
25352;DHT22;13304;48.464;8.712;2022-08-21T06:57:34;18.60;77.70
25352;DHT22;13304;48.464;8.712;2022-08-21T07:00:00;18.60;77.60
25352;DHT22;13304;48.464;8.712;2022-08-21T07:02:26;18.70;77.50
25352;DHT22;13304;48.464;8.712;2022-08-21T07:04:52;18.80;77.40
25352;DHT22;13304;48.464;8.712;2022-08-21T07:07:18;18.80;77.00
25352;DHT22;13304;48.464;8.712;2022-08-21T07:09:43;18.90;77.00
25352;DHT22;13304;48.464;8.712;2022-08-21T07:12:09;18.90;76.50
25352;DHT22;13304;48.464;8.712;2022-08-21T07:14:35;19.00;76.40
25352;DHT22;13304;48.464;8.712;2022-08-21T07:17:02;19.00;76.50
25352;DHT22;13304;48.464;8.712;2022-08-21T07:19:31;19.10;76.60
25352;DHT22;13304;48.464;8.712;2022-08-21T07:21:59;19.10;76.20
25352;DHT22;13304;48.464;8.712;2022-08-21T07:24:25;19.20;76.00
25352;DHT22;13304;48.464;8.712;2022-08-21T07:26:51;19.30;75.60
25352;DHT22;13304;48.464;8.712;2022-08-21T07:29:17;19.30;75.50
25352;DHT22;13304;48.464;8.712;2022-08-21T07:31:44;19.40;75.60
25352;DHT22;13304;48.464;8.712;2022-08-21T07:34:10;19.50;75.30
25352;DHT22;13304;48.464;8.712;2022-08-21T07:36:36;19.50;74.90
25352;DHT22;13304;48.464;8.712;2022-08-21T07:39:02;19.60;74.90
25352;DHT22;13304;48.464;8.712;2022-08-21T07:41:29;19.70;74.70
25352;DHT22;13304;48.464;8.712;2022-08-21T07:43:59;19.70;74.20
25352;DHT22;13304;48.464;8.712;2022-08-21T07:46:25;19.80;73.90
25352;DHT22;13304;48.464;8.712;2022-08-21T07:48:55;19.90;73.90
25352;DHT22;13304;48.464;8.712;2022-08-21T07:51:23;20.00;74.20
25352;DHT22;13304;48.464;8.712;2022-08-21T07:53:52;20.10;73.80
25352;DHT22;13304;48.464;8.712;2022-08-21T07:56:18;20.10;73.70
25352;DHT22;13304;48.464;8.712;2022-08-21T07:58:45;20.20;73.40
25352;DHT22;13304;48.464;8.712;2022-08-21T08:01:10;20.30;73.00
25352;DHT22;13304;48.464;8.712;2022-08-21T08:03:37;20.40;72.70
25352;DHT22;13304;48.464;8.712;2022-08-21T08:06:03;20.50;72.10
25352;DHT22;13304;48.464;8.712;2022-08-21T08:08:31;20.60;70.50
25352;DHT22;13304;48.464;8.712;2022-08-21T08:10:58;20.60;70.90
25352;DHT22;13304;48.464;8.712;2022-08-21T08:13:25;20.70;71.10
25352;DHT22;13304;48.464;8.712;2022-08-21T08:15:51;20.80;70.50
25352;DHT22;13304;48.464;8.712;2022-08-21T08:18:17;20.80;70.50
25352;DHT22;13304;48.464;8.712;2022-08-21T08:20:43;20.90;70.30
25352;DHT22;13304;48.464;8.712;2022-08-21T08:23:13;21.00;69.40
25352;DHT22;13304;48.464;8.712;2022-08-21T08:25:39;21.00;68.20
25352;DHT22;13304;48.464;8.712;2022-08-21T08:28:05;21.10;68.00
25352;DHT22;13304;48.464;8.712;2022-08-21T08:30:32;21.20;67.50
25352;DHT22;13304;48.464;8.712;2022-08-21T08:32:58;21.30;67.30
25352;DHT22;13304;48.464;8.712;2022-08-21T08:35:25;21.30;66.80
25352;DHT22;13304;48.464;8.712;2022-08-21T08:37:51;21.40;66.70
25352;DHT22;13304;48.464;8.712;2022-08-21T08:40:31;21.40;66.40
25352;DHT22;13304;48.464;8.712;2022-08-21T08:42:59;21.40;66.00
25352;DHT22;13304;48.464;8.712;2022-08-21T08:45:26;21.50;66.50
25352;DHT22;13304;48.464;8.712;2022-08-21T08:47:56;21.60;65.10
25352;DHT22;13304;48.464;8.712;2022-08-21T08:53:06;21.70;65.00
25352;DHT22;13304;48.464;8.712;2022-08-21T08:55:40;21.80;65.30
25352;DHT22;13304;48.464;8.712;2022-08-21T08:58:07;21.90;65.10
25352;DHT22;13304;48.464;8.712;2022-08-21T09:00:34;21.90;64.40
25352;DHT22;13304;48.464;8.712;2022-08-21T09:03:02;22.00;64.40
25352;DHT22;13304;48.464;8.712;2022-08-21T09:05:43;22.10;64.00
25352;DHT22;13304;48.464;8.712;2022-08-21T09:08:23;22.10;63.00
25352;DHT22;13304;48.464;8.712;2022-08-21T09:11:04;22.20;62.80
25352;DHT22;13304;48.464;8.712;2022-08-21T09:16:46;22.30;61.20
25352;DHT22;13304;48.464;8.712;2022-08-21T09:19:35;22.40;61.70
25352;DHT22;13304;48.464;8.712;2022-08-21T09:25:16;22.50;61.40
25352;DHT22;13304;48.464;8.712;2022-08-21T09:27:20;22.60;60.50
25352;DHT22;13304;48.464;8.712;2022-08-21T09:29:52;22.70;60.70
25352;DHT22;13304;48.464;8.712;2022-08-21T09:32:22;22.70;61.00
25352;DHT22;13304;48.464;8.712;2022-08-21T09:35:21;22.70;58.40
25352;DHT22;13304;48.464;8.712;2022-08-21T09:40:40;22.90;58.90
25352;DHT22;13304;48.464;8.712;2022-08-21T09:43:16;22.90;56.80
25352;DHT22;13304;48.464;8.712;2022-08-21T09:45:44;23.00;57.70
25352;DHT22;13304;48.464;8.712;2022-08-21T09:48:18;23.00;58.10
25352;DHT22;13304;48.464;8.712;2022-08-21T09:50:45;23.10;56.90
25352;DHT22;13304;48.464;8.712;2022-08-21T09:53:21;23.10;57.60
25352;DHT22;13304;48.464;8.712;2022-08-21T09:58:38;23.10;57.20
25352;DHT22;13304;48.464;8.712;2022-08-21T10:01:11;23.20;58.00
25352;DHT22;13304;48.464;8.712;2022-08-21T10:03:37;23.20;56.50
25352;DHT22;13304;48.464;8.712;2022-08-21T10:06:06;23.30;56.10
25352;DHT22;13304;48.464;8.712;2022-08-21T10:08:36;23.30;56.00
25352;DHT22;13304;48.464;8.712;2022-08-21T10:14:01;23.40;55.00
25352;DHT22;13304;48.464;8.712;2022-08-21T10:30:14;23.60;54.50
25352;DHT22;13304;48.464;8.712;2022-08-21T10:32:46;23.70;54.30
25352;DHT22;13304;48.464;8.712;2022-08-21T10:35:26;23.70;53.70
25352;DHT22;13304;48.464;8.712;2022-08-21T10:46:17;23.80;
25352;DHT22;13304;48.464;8.712;2022-08-21T10:54:49;23.90;52.40
25352;DHT22;13304;48.464;8.712;2022-08-21T11:00:02;23.90;50.80
25352;DHT22;13304;48.464;8.712;2022-08-21T11:02:51;24.00;51.20
25352;DHT22;13304;48.464;8.712;2022-08-21T11:05:48;24.00;50.60
25352;DHT22;13304;48.464;8.712;2022-08-21T11:08:37;24.00;51.00
25352;DHT22;13304;48.464;8.712;2022-08-21T11:11:11;24.10;50.60
25352;DHT22;13304;48.464;8.712;2022-08-21T11:13:48;24.10;51.20
25352;DHT22;13304;48.464;8.712;2022-08-21T11:16:22;24.20;50.30
25352;DHT22;13304;48.464;8.712;2022-08-21T11:26:52;24.30;47.70
25352;DHT22;13304;48.464;8.712;2022-08-21T11:29:34;24.50;49.40
25352;DHT22;13304;48.464;8.712;2022-08-21T11:45:54;24.60;47.60
25352;DHT22;13304;48.464;8.712;2022-08-21T11:51:11;24.50;46.50
25352;DHT22;13304;48.464;8.712;2022-08-21T11:54:14;24.60;47.60
25352;DHT22;13304;48.464;8.712;2022-08-21T11:56:47;24.60;47.00
25352;DHT22;13304;48.464;8.712;2022-08-21T11:59:23;24.70;47.20
25352;DHT22;13304;48.464;8.712;2022-08-21T12:01:51;24.70;46.30
25352;DHT22;13304;48.464;8.712;2022-08-21T12:06:52;24.80;46.70
25352;DHT22;13304;48.464;8.712;2022-08-21T12:14:42;24.90;45.30
25352;DHT22;13304;48.464;8.712;2022-08-21T12:17:24;24.90;45.60
25352;DHT22;13304;48.464;8.712;2022-08-21T12:22:53;24.90;45.30
25352;DHT22;13304;48.464;8.712;2022-08-21T12:25:20;25.00;46.20
25352;DHT22;13304;48.464;8.712;2022-08-21T12:27:50;25.00;45.60
25352;DHT22;13304;48.464;8.712;2022-08-21T12:30:43;25.00;44.80
25352;DHT22;13304;48.464;8.712;2022-08-21T12:33:37;25.00;44.30
25352;DHT22;13304;48.464;8.712;2022-08-21T12:36:07;25.10;44.40
25352;DHT22;13304;48.464;8.712;2022-08-21T12:38:59;25.10;45.30
25352;DHT22;13304;48.464;8.712;2022-08-21T12:41:42;25.10;44.90
25352;DHT22;13304;48.464;8.712;2022-08-21T12:44:35;25.20;45.20
25352;DHT22;13304;48.464;8.712;2022-08-21T12:47:06;25.20;43.50
25352;DHT22;13304;48.464;8.712;2022-08-21T12:49:52;25.30;44.70
25352;DHT22;13304;48.464;8.712;2022-08-21T12:52:34;25.20;44.00
25352;DHT22;13304;48.464;8.712;2022-08-21T12:55:01;25.20;44.40
25352;DHT22;13304;48.464;8.712;2022-08-21T12:57:29;25.30;45.00
25352;DHT22;13304;48.464;8.712;2022-08-21T12:59:58;25.30;43.50
25352;DHT22;13304;48.464;8.712;2022-08-21T13:02:28;25.30;42.30
25352;DHT22;13304;48.464;8.712;2022-08-21T13:04:55;25.30;42.80
25352;DHT22;13304;48.464;8.712;2022-08-21T13:07:30;25.30;42.80
25352;DHT22;13304;48.464;8.712;2022-08-21T13:10:04;25.30;42.50
25352;DHT22;13304;48.464;8.712;2022-08-21T13:12:31;25.30;42.90
25352;DHT22;13304;48.464;8.712;2022-08-21T13:15:02;25.40;43.00
25352;DHT22;13304;48.464;8.712;2022-08-21T13:17:32;25.40;43.10
25352;DHT22;13304;48.464;8.712;2022-08-21T13:20:04;25.50;43.10
25352;DHT22;13304;48.464;8.712;2022-08-21T13:22:30;25.50;42.70
25352;DHT22;13304;48.464;8.712;2022-08-21T13:24:55;25.50;42.90
25352;DHT22;13304;48.464;8.712;2022-08-21T13:27:26;25.50;41.60
25352;DHT22;13304;48.464;8.712;2022-08-21T13:30:18;25.50;42.00
25352;DHT22;13304;48.464;8.712;2022-08-21T13:32:48;25.50;40.20
25352;DHT22;13304;48.464;8.712;2022-08-21T13:35:25;25.60;41.00
25352;DHT22;13304;48.464;8.712;2022-08-21T13:37:52;25.70;40.40
25352;DHT22;13304;48.464;8.712;2022-08-21T13:40:25;25.70;40.30
25352;DHT22;13304;48.464;8.712;2022-08-21T13:42:52;25.70;40.00
25352;DHT22;13304;48.464;8.712;2022-08-21T13:45:26;25.70;40.80
25352;DHT22;13304;48.464;8.712;2022-08-21T13:47:53;25.70;40.40
25352;DHT22;13304;48.464;8.712;2022-08-21T13:50:21;25.80;40.40
25352;DHT22;13304;48.464;8.712;2022-08-21T13:52:58;25.80;40.40
25352;DHT22;13304;48.464;8.712;2022-08-21T13:55:24;25.80;40.30
25352;DHT22;13304;48.464;8.712;2022-08-21T13:58:02;25.80;40.20
25352;DHT22;13304;48.464;8.712;2022-08-21T14:00:30;25.80;40.00
25352;DHT22;13304;48.464;8.712;2022-08-21T14:03:07;25.80;40.00
25352;DHT22;13304;48.464;8.712;2022-08-21T14:05:42;25.80;39.50
25352;DHT22;13304;48.464;8.712;2022-08-21T14:08:27;25.90;39.90
25352;DHT22;13304;48.464;8.712;2022-08-21T14:10:53;25.90;40.60
25352;DHT22;13304;48.464;8.712;2022-08-21T14:16:00;26.00;39.90
25352;DHT22;13304;48.464;8.712;2022-08-21T14:18:27;25.90;39.60
25352;DHT22;13304;48.464;8.712;2022-08-21T14:21:08;26.00;40.80
25352;DHT22;13304;48.464;8.712;2022-08-21T14:23:34;26.00;40.40
25352;DHT22;13304;48.464;8.712;2022-08-21T14:26:03;26.10;40.90
25352;DHT22;13304;48.464;8.712;2022-08-21T14:28:30;26.10;41.00
25352;DHT22;13304;48.464;8.712;2022-08-21T14:30:58;26.10;41.70
25352;DHT22;13304;48.464;8.712;2022-08-21T14:33:28;26.20;40.40
25352;DHT22;13304;48.464;8.712;2022-08-21T14:35:54;26.20;39.70
25352;DHT22;13304;48.464;8.712;2022-08-21T14:38:25;26.30;40.30
25352;DHT22;13304;48.464;8.712;2022-08-21T14:40:54;26.30;39.80
25352;DHT22;13304;48.464;8.712;2022-08-21T14:43:20;26.30;40.00
25352;DHT22;13304;48.464;8.712;2022-08-21T14:45:46;26.30;40.00
25352;DHT22;13304;48.464;8.712;2022-08-21T14:48:13;26.40;38.50
25352;DHT22;13304;48.464;8.712;2022-08-21T14:50:41;26.40;38.30
25352;DHT22;13304;48.464;8.712;2022-08-21T14:53:07;26.40;38.40
25352;DHT22;13304;48.464;8.712;2022-08-21T14:55:34;26.50;38.90
25352;DHT22;13304;48.464;8.712;2022-08-21T14:58:21;26.50;39.00
25352;DHT22;13304;48.464;8.712;2022-08-21T15:00:49;26.50;39.10
25352;DHT22;13304;48.464;8.712;2022-08-21T15:03:16;26.50;38.50
25352;DHT22;13304;48.464;8.712;2022-08-21T15:05:44;26.50;39.20
25352;DHT22;13304;48.464;8.712;2022-08-21T15:08:10;26.50;39.10
25352;DHT22;13304;48.464;8.712;2022-08-21T15:10:38;26.50;39.50
25352;DHT22;13304;48.464;8.712;2022-08-21T15:13:05;26.60;40.20
25352;DHT22;13304;48.464;8.712;2022-08-21T15:15:36;26.60;39.70
25352;DHT22;13304;48.464;8.712;2022-08-21T15:18:08;26.60;39.70
25352;DHT22;13304;48.464;8.712;2022-08-21T15:20:34;26.60;39.80
25352;DHT22;13304;48.464;8.712;2022-08-21T15:23:00;26.70;39.70
25352;DHT22;13304;48.464;8.712;2022-08-21T15:25:26;26.90;39.90
25352;DHT22;13304;48.464;8.712;2022-08-21T15:27:52;27.00;39.50
25352;DHT22;13304;48.464;8.712;2022-08-21T15:30:19;27.20;39.20
25352;DHT22;13304;48.464;8.712;2022-08-21T15:32:44;27.30;38.90
25352;DHT22;13304;48.464;8.712;2022-08-21T15:35:10;27.50;38.30
25352;DHT22;13304;48.464;8.712;2022-08-21T15:37:36;27.60;37.70
25352;DHT22;13304;48.464;8.712;2022-08-21T15:40:03;27.70;37.60
25352;DHT22;13304;48.464;8.712;2022-08-21T15:42:30;27.80;38.10
25352;DHT22;13304;48.464;8.712;2022-08-21T15:44:57;27.80;38.70
25352;DHT22;13304;48.464;8.712;2022-08-21T15:47:30;28.00;38.20
25352;DHT22;13304;48.464;8.712;2022-08-21T15:49:56;28.10;37.70
25352;DHT22;13304;48.464;8.712;2022-08-21T15:52:23;28.30;37.50
25352;DHT22;13304;48.464;8.712;2022-08-21T15:54:49;28.50;37.00
25352;DHT22;13304;48.464;8.712;2022-08-21T15:57:21;28.60;36.30
25352;DHT22;13304;48.464;8.712;2022-08-21T15:59:51;28.70;35.70
25352;DHT22;13304;48.464;8.712;2022-08-21T16:02:30;28.70;35.10
25352;DHT22;13304;48.464;8.712;2022-08-21T16:04:56;28.60;35.10
25352;DHT22;13304;48.464;8.712;2022-08-21T16:07:23;28.50;35.10
25352;DHT22;13304;48.464;8.712;2022-08-21T16:09:48;28.40;35.50
25352;DHT22;13304;48.464;8.712;2022-08-21T16:12:27;28.20;35.40
25352;DHT22;13304;48.464;8.712;2022-08-21T16:14:57;28.00;35.90
25352;DHT22;13304;48.464;8.712;2022-08-21T16:17:31;27.80;36.10
25352;DHT22;13304;48.464;8.712;2022-08-21T16:19:57;27.70;36.30
25352;DHT22;13304;48.464;8.712;2022-08-21T16:22:25;27.50;36.60
25352;DHT22;13304;48.464;8.712;2022-08-21T16:24:51;27.40;36.90
25352;DHT22;13304;48.464;8.712;2022-08-21T16:27:17;27.20;37.00
25352;DHT22;13304;48.464;8.712;2022-08-21T16:29:44;27.10;37.10
25352;DHT22;13304;48.464;8.712;2022-08-21T16:32:14;27.00;37.30
25352;DHT22;13304;48.464;8.712;2022-08-21T16:34:46;26.90;37.60
25352;DHT22;13304;48.464;8.712;2022-08-21T16:37:14;26.80;37.00
25352;DHT22;13304;48.464;8.712;2022-08-21T16:39:40;26.70;37.40
25352;DHT22;13304;48.464;8.712;2022-08-21T16:42:06;26.60;37.50
25352;DHT22;13304;48.464;8.712;2022-08-21T16:44:33;26.60;37.40
25352;DHT22;13304;48.464;8.712;2022-08-21T16:47:00;26.50;37.90
25352;DHT22;13304;48.464;8.712;2022-08-21T16:49:26;26.50;37.90
25352;DHT22;13304;48.464;8.712;2022-08-21T16:51:56;26.40;38.30
25352;DHT22;13304;48.464;8.712;2022-08-21T16:54:22;26.40;38.60
25352;DHT22;13304;48.464;8.712;2022-08-21T16:56:48;26.40;38.80
25352;DHT22;13304;48.464;8.712;2022-08-21T16:59:14;26.30;38.70
25352;DHT22;13304;48.464;8.712;2022-08-21T17:01:40;26.30;39.00
25352;DHT22;13304;48.464;8.712;2022-08-21T17:04:06;26.30;38.80
25352;DHT22;13304;48.464;8.712;2022-08-21T17:06:32;26.30;39.30
25352;DHT22;13304;48.464;8.712;2022-08-21T17:08:59;26.30;39.40